Time;durP1;ratioP1;P1;durP2;ratioP2;P2;SDS_P1;SDS_P2;PMS_P1;PMS_P2;Temp;Humidity;BMP_temperature;BMP_pressure;BME280_temperature;BME280_humidity;BME280_pressure;Samples;Min_cycle;Max_cycle;Signal;HPM_P1;HPM_P2
2020/01/28 00:02:03;;;;;;;22.6;7.9;;;;;;;4.16;76.49512;928.0122;;;;
2020/01/28 00:03:59;;;;;;;20.6;8;;;;;;;4.11;76.49805;927.8964;;;;
2020/01/28 00:08:35;;;;;;;16.4;7.3;;;;;;;3.78;77.87695;927.7896;;;;
2020/01/28 00:11:01;;;;;;;18.8;7.6;;;;;;;3.76;78.1543;927.7623;;;;
2020/01/28 00:13:26;;;;;;;19.3;7.2;;;;;;;3.84;77.77441;927.7341;;;;
2020/01/28 00:15:51;;;;;;;17.6;7.2;;;;;;;3.83;77.7627;927.7434;;;;
2020/01/28 00:18:16;;;;;;;23.7;7.9;;;;;;;3.63;78.58008;927.7192;;;;
2020/01/28 00:20:41;;;;;;;19.8;7.4;;;;;;;3.56;78.98242;927.7372;;;;
2020/01/28 00:23:07;;;;;;;24.2;7.7;;;;;;;3.49;79.35156;927.5801;;;;
2020/01/28 00:25:32;;;;;;;21.1;7.5;;;;;;;3.43;79.64258;927.568;;;;
2020/01/28 00:27:57;;;;;;;20.3;7.2;;;;;;;3.31;80.39551;927.5183;;;;
2020/01/28 00:30:22;;;;;;;19.6;7.3;;;;;;;3.34;80.46777;927.4968;;;;
2020/01/28 00:32:48;;;;;;;22.1;7.9;;;;;;;3.41;80.23438;927.4261;;;;
2020/01/28 00:35:13;;;;;;;15.9;7.1;;;;;;;3.4;80.42383;927.332;;;;
2020/01/28 00:37:38;;;;;;;18.4;7.7;;;;;;;3.64;80.36816;927.4084;;;;
2020/01/28 00:40:03;;;;;;;21.1;7.5;;;;;;;3.79;79.08203;927.3575;;;;
2020/01/28 00:42:28;;;;;;;19.1;7;;;;;;;3.95;78.19043;927.2383;;;;
2020/01/28 00:44:54;;;;;;;19.1;7;;;;;;;4.02;77.63965;927.2051;;;;
2020/01/28 00:47:19;;;;;;;18.9;6.9;;;;;;;4.06;77.35449;927.101;;;;
2020/01/28 00:49:52;;;;;;;19.2;6.7;;;;;;;4.05;77.53223;927.041;;;;
2020/01/28 00:52:11;;;;;;;20.4;6.8;;;;;;;4.02;77.35742;926.9341;;;;
2020/01/28 00:54:34;;;;;;;17;5.7;;;;;;;3.85;78.14844;926.9675;;;;
2020/01/28 00:57:00;;;;;;;17.4;6.2;;;;;;;3.87;78.18555;926.9993;;;;
2020/01/28 00:59:29;;;;;;;18.4;6.1;;;;;;;3.92;77.96875;926.9528;;;;
2020/01/28 01:01:55;;;;;;;19.3;5.4;;;;;;;3.79;78.50781;926.8591;;;;
2020/01/28 01:04:20;;;;;;;16.8;5.5;;;;;;;3.79;78.70996;926.8166;;;;
2020/01/28 01:06:45;;;;;;;20.3;6.1;;;;;;;3.75;78.67871;926.8159;;;;
2020/01/28 01:09:10;;;;;;;20.2;5.6;;;;;;;3.71;79.05469;926.7516;;;;
2020/01/28 01:11:35;;;;;;;17.5;5.7;;;;;;;3.79;78.73242;926.7551;;;;
2020/01/28 01:14:00;;;;;;;17.8;5.8;;;;;;;3.66;79.17969;926.7003;;;;
2020/01/28 01:21:20;;;;;;;18;5.3;;;;;;;4.04;77.48633;926.7053;;;;
2020/01/28 01:23:42;;;;;;;16.3;5.2;;;;;;;4.08;77.17773;926.772;;;;
2020/01/28 01:26:06;;;;;;;16.4;5.7;;;;;;;4.03;77.14844;926.6658;;;;
2020/01/28 01:28:31;;;;;;;16.5;5.3;;;;;;;4.03;77.23535;926.6696;;;;
2020/01/28 01:31:14;;;;;;;16.2;5.6;;;;;;;3.98;77.2041;926.7064;;;;
2020/01/28 01:33:39;;;;;;;18.3;5.4;;;;;;;3.9;77.62793;926.6863;;;;
2020/01/28 01:36:04;;;;;;;16.7;4.6;;;;;;;3.97;77.57422;926.5369;;;;
2020/01/28 01:38:30;;;;;;;18.2;4.8;;;;;;;3.84;77.92188;926.6847;;;;
2020/01/28 01:40:55;;;;;;;14.5;4.3;;;;;;;3.72;78.88965;926.6462;;;;
2020/01/28 01:43:20;;;;;;;14.3;4.5;;;;;;;3.87;78.47754;926.6103;;;;
2020/01/28 01:45:46;;;;;;;13.2;4.2;;;;;;;3.95;78.12109;926.4808;;;;
2020/01/28 01:48:11;;;;;;;15.5;4.6;;;;;;;3.94;78.0625;926.5192;;;;
2020/01/28 01:50:36;;;;;;;15.4;5.2;;;;;;;3.79;78.64258;926.4371;;;;
2020/01/28 01:53:01;;;;;;;17.5;5.2;;;;;;;3.92;78.50879;926.2827;;;;
2020/01/28 01:55:26;;;;;;;15.6;5.2;;;;;;;3.91;78.44141;926.3747;;;;
2020/01/28 01:57:51;;;;;;;16.2;5.1;;;;;;;3.91;78.42969;926.1841;;;;
2020/01/28 02:00:16;;;;;;;14.4;5.1;;;;;;;3.89;79.02051;925.924;;;;
2020/01/28 02:02:42;;;;;;;18;5.1;;;;;;;3.89;78.8291;925.7988;;;;
2020/01/28 02:05:07;;;;;;;12.6;4.4;;;;;;;4.01;77.99805;925.6692;;;;
2020/01/28 02:07:32;;;;;;;16.8;4.7;;;;;;;4.07;77.63672;925.7008;;;;
2020/01/28 02:09:57;;;;;;;18.8;5.4;;;;;;;3.99;77.81348;925.5561;;;;
2020/01/28 02:12:22;;;;;;;12.7;4.1;;;;;;;3.86;77.67773;925.5221;;;;
2020/01/28 02:14:47;;;;;;;15.8;4.6;;;;;;;3.97;77.59668;925.4203;;;;
2020/01/28 02:17:12;;;;;;;14.1;4.5;;;;;;;3.96;77.52734;925.2903;;;;
2020/01/28 02:19:37;;;;;;;15.1;4.4;;;;;;;4;77.42188;925.2766;;;;
2020/01/28 02:22:03;;;;;;;19.5;4.3;;;;;;;3.99;77.67871;924.9805;;;;
2020/01/28 02:24:28;;;;;;;13.8;4.2;;;;;;;3.99;77.36328;924.9702;;;;
2020/01/28 02:26:53;;;;;;;16.1;4.2;;;;;;;3.91;77.83398;925.0441;;;;
2020/01/28 02:29:18;;;;;;;14;3.9;;;;;;;3.72;78.73242;924.9241;;;;
2020/01/28 02:31:43;;;;;;;15.9;4.1;;;;;;;3.66;79.51758;924.8721;;;;
2020/01/28 02:34:08;;;;;;;14.1;4.3;;;;;;;3.43;80.27148;924.6813;;;;
2020/01/28 02:36:33;;;;;;;17;4.3;;;;;;;3.38;80.59766;924.6624;;;;
2020/01/28 02:38:58;;;;;;;19.4;5.8;;;;;;;3.47;80.20117;924.7024;;;;
2020/01/28 02:41:24;;;;;;;13.8;5.5;;;;;;;3.35;80.55957;924.7972;;;;
2020/01/28 02:43:49;;;;;;;14.6;4.5;;;;;;;3.23;80.90723;924.6476;;;;
2020/01/28 02:46:14;;;;;;;12.6;4.5;;;;;;;3.25;80.98926;924.7572;;;;
2020/01/28 02:48:39;;;;;;;13;3.8;;;;;;;3.26;81.11621;924.8038;;;;
2020/01/28 02:51:04;;;;;;;11;3.8;;;;;;;3.31;80.87793;924.8414;;;;
2020/01/28 02:53:29;;;;;;;11.2;4;;;;;;;3.27;81.00586;924.8786;;;;
2020/01/28 02:55:54;;;;;;;11.9;4.2;;;;;;;3.29;80.86328;924.573;;;;
2020/01/28 02:58:20;;;;;;;12;4.2;;;;;;;3.44;80.8125;924.6807;;;;
2020/01/28 03:00:45;;;;;;;13.9;4.3;;;;;;;3.49;80.14844;924.6114;;;;
2020/01/28 03:03:10;;;;;;;10.8;3.7;;;;;;;3.65;79.22461;924.5642;;;;
2020/01/28 03:05:35;;;;;;;12.1;4;;;;;;;3.61;78.96875;924.6911;;;;
2020/01/28 03:08:01;;;;;;;10.3;3.7;;;;;;;3.45;79.77148;924.8162;;;;
2020/01/28 03:12:51;;;;;;;10.6;4;;;;;;;3.58;79.42383;924.8974;;;;
2020/01/28 03:15:16;;;;;;;10.8;4;;;;;;;3.58;79.71582;925.0667;;;;
2020/01/28 03:17:41;;;;;;;13;4.3;;;;;;;3.63;79.88184;925.1417;;;;
2020/01/28 03:20:06;;;;;;;11.5;3.9;;;;;;;3.75;79.2666;925.1024;;;;
2020/01/28 03:22:31;;;;;;;10.5;3.8;;;;;;;3.79;78.78906;925.1044;;;;
2020/01/28 03:24:56;;;;;;;14.8;4.2;;;;;;;3.81;78.83691;925.0553;;;;
2020/01/28 03:27:21;;;;;;;14.7;4.5;;;;;;;3.42;80.36133;925.1155;;;;
2020/01/28 03:29:46;;;;;;;11.6;3.8;;;;;;;3.37;80.46387;925.2852;;;;
2020/01/28 03:32:12;;;;;;;10.2;3.9;;;;;;;3.37;80.77734;925.4409;;;;
2020/01/28 03:34:38;;;;;;;13.2;4.8;;;;;;;3.53;80.64941;925.7222;;;;
2020/01/28 03:37:03;;;;;;;12;4.4;;;;;;;3.71;79.72852;925.8369;;;;
2020/01/28 03:39:28;;;;;;;10.3;4.1;;;;;;;3.73;79.48535;925.9403;;;;
2020/01/28 03:41:53;;;;;;;9.8;3.8;;;;;;;3.83;79.23535;925.9467;;;;
2020/01/28 03:44:18;;;;;;;11.6;4.1;;;;;;;3.93;78.77051;926.0223;;;;
2020/01/28 03:46:43;;;;;;;11.7;4;;;;;;;3.96;78.25781;925.9116;;;;
2020/01/28 03:49:08;;;;;;;11.3;3.8;;;;;;;3.93;78.27441;925.9143;;;;
2020/01/28 03:51:33;;;;;;;11.3;3.8;;;;;;;3.99;78.17285;925.9805;;;;
2020/01/28 03:53:59;;;;;;;12.2;3.9;;;;;;;4.06;77.86035;926.155;;;;
2020/01/28 03:56:24;;;;;;;12.9;4;;;;;;;4;78.32129;926.1358;;;;
2020/01/28 03:58:49;;;;;;;11.9;4;;;;;;;3.76;79.91895;926.1816;;;;
2020/01/28 04:02:30;;;;;;;10.5;3.8;;;;;;;3.67;79.30664;926.322;;;;
2020/01/28 04:04:55;;;;;;;10.7;3.6;;;;;;;3.74;78.9043;926.3719;;;;
2020/01/28 04:07:20;;;;;;;9.9;3.8;;;;;;;3.72;78.88965;926.3016;;;;
2020/01/28 04:09:45;;;;;;;10.7;3.4;;;;;;;3.79;78.30566;926.3245;;;;
2020/01/28 04:12:10;;;;;;;10.6;3.7;;;;;;;3.9;78.34961;926.2991;;;;
2020/01/28 04:14:35;;;;;;;11.9;4.4;;;;;;;4.11;77.9375;926.4464;;;;
2020/01/28 04:19:48;;;;;;;10.5;3.9;;;;;;;4.09;78.40723;926.5154;;;;
2020/01/28 04:21:50;;;;;;;13.5;3.9;;;;;;;4.09;78.86621;926.4721;;;;
2020/01/28 04:24:16;;;;;;;13.4;3.9;;;;;;;4.27;78.66309;926.4197;;;;
2020/01/28 04:26:41;;;;;;;14.6;3.9;;;;;;;4.41;78.59961;926.5897;;;;
2020/01/28 04:29:06;;;;;;;11.8;4.4;;;;;;;4.32;80.21484;926.3273;;;;
2020/01/28 04:31:31;;;;;;;17.7;4.4;;;;;;;4.34;80.11719;926.308;;;;
2020/01/28 04:33:56;;;;;;;12.6;4.3;;;;;;;4.33;80.50977;926.3741;;;;
2020/01/28 04:36:21;;;;;;;14;4.3;;;;;;;4.3;81.65039;926.3539;;;;
2020/01/28 04:38:46;;;;;;;13.7;4.4;;;;;;;4.21;82.20898;926.2385;;;;
2020/01/28 04:41:12;;;;;;;16.3;4.7;;;;;;;4.28;82.33496;926.2922;;;;
2020/01/28 04:44:01;;;;;;;12.3;4.8;;;;;;;4.19;82.25977;926.1922;;;;
2020/01/28 04:46:26;;;;;;;15.6;4.5;;;;;;;4.23;82.91113;926.1688;;;;
2020/01/28 04:48:59;;;;;;;16.8;6.1;;;;;;;4.06;83.13477;926.24;;;;
2020/01/28 04:51:25;;;;;;;18.2;5.6;;;;;;;4.02;83.5332;926.0623;;;;
2020/01/28 04:53:50;;;;;;;19.8;6;;;;;;;3.99;83.62695;925.8364;;;;
2020/01/28 04:56:15;;;;;;;16;5.6;;;;;;;4.09;83.32031;925.7017;;;;
2020/01/28 04:58:40;;;;;;;13.9;5.9;;;;;;;4.16;83.20117;925.6713;;;;
2020/01/28 05:01:05;;;;;;;14.5;5.3;;;;;;;4.11;83.22461;925.6863;;;;
2020/01/28 05:03:30;;;;;;;15.1;4.8;;;;;;;4.03;83.24414;925.6719;;;;
2020/01/28 05:05:55;;;;;;;13.9;4.8;;;;;;;4.05;83.50391;925.5981;;;;
2020/01/28 05:08:20;;;;;;;16.6;5.3;;;;;;;4;83.87793;925.6342;;;;
2020/01/28 05:10:46;;;;;;;18.5;5;;;;;;;3.96;84.27344;925.7509;;;;
2020/01/28 05:13:11;;;;;;;15.8;4.8;;;;;;;3.98;84.43652;925.6577;;;;
2020/01/28 05:15:36;;;;;;;13.8;4.6;;;;;;;4.06;84.38379;925.7494;;;;
2020/01/28 05:18:01;;;;;;;12.2;4.3;;;;;;;3.96;85.49902;925.7061;;;;
2020/01/28 05:20:48;;;;;;;14.2;4.5;;;;;;;3.93;85.04395;925.7261;;;;
2020/01/28 05:24:10;;;;;;;12.3;4.7;;;;;;;3.9;85.38574;925.6753;;;;
2020/01/28 05:25:52;;;;;;;10.2;5;;;;;;;3.98;85.01953;925.6741;;;;
2020/01/28 05:28:04;;;;;;;16.8;8.1;;;;;;;4.03;85.2998;925.697;;;;
2020/01/28 05:30:29;;;;;;;16.8;7.3;;;;;;;4.05;85.17969;925.6328;;;;
2020/01/28 05:33:00;;;;;;;18.7;8.1;;;;;;;4.09;85.28809;925.7198;;;;
2020/01/28 05:35:19;;;;;;;20.7;8.4;;;;;;;4.17;85.125;925.7108;;;;
2020/01/28 05:37:44;;;;;;;19.4;7.8;;;;;;;4.19;85.38867;925.6833;;;;
2020/01/28 05:40:09;;;;;;;17.4;6.9;;;;;;;4.24;85.70215;925.6481;;;;
2020/01/28 05:42:34;;;;;;;17.7;8;;;;;;;4.24;86.02832;925.6836;;;;
2020/01/28 05:44:59;;;;;;;16.9;8.1;;;;;;;4.13;86.79395;925.685;;;;
2020/01/28 05:47:25;;;;;;;13.1;6.8;;;;;;;4.08;87.54883;925.637;;;;
2020/01/28 05:49:50;;;;;;;21.3;7.5;;;;;;;4.17;87.79102;925.6917;;;;
2020/01/28 05:52:15;;;;;;;14.6;6.4;;;;;;;4.12;88.58984;925.6462;;;;
2020/01/28 05:54:40;;;;;;;17.4;6.8;;;;;;;4.12;89.44629;925.5486;;;;
2020/01/28 05:57:05;;;;;;;12.5;5.7;;;;;;;4.14;90.08008;925.4827;;;;
2020/01/28 05:59:30;;;;;;;15;5.9;;;;;;;4.26;90.07129;925.3788;;;;
2020/01/28 06:04:31;;;;;;;20.6;11.4;;;;;;;4.38;88.92578;925.2494;;;;
2020/01/28 06:06:51;;;;;;;16.1;7;;;;;;;4.26;89.8125;925.1535;;;;
2020/01/28 06:09:10;;;;;;;18.4;7.8;;;;;;;4.16;89.99609;925.1041;;;;
2020/01/28 06:11:35;;;;;;;21.2;11.6;;;;;;;4.17;89.95117;925.0452;;;;
2020/01/28 06:14:00;;;;;;;16.8;7;;;;;;;4.22;89.83691;924.9537;;;;
2020/01/28 06:16:26;;;;;;;19.5;8.4;;;;;;;4.19;89.83301;924.9799;;;;
2020/01/28 06:18:51;;;;;;;15.4;6.2;;;;;;;4.13;90.77539;924.9745;;;;
2020/01/28 06:21:37;;;;;;;17.4;6.9;;;;;;;4.09;91.33984;924.8495;;;;
2020/01/28 06:24:02;;;;;;;12.4;5.3;;;;;;;4.18;91.3252;924.8057;;;;
2020/01/28 06:26:27;;;;;;;32.6;24.9;;;;;;;4.15;91.51074;924.7258;;;;
2020/01/28 06:28:52;;;;;;;19.5;9.6;;;;;;;4.24;91.73242;924.7816;;;;
2020/01/28 06:31:17;;;;;;;55;49;;;;;;;4.27;92.2334;924.6361;;;;
2020/01/28 06:33:42;;;;;;;16.6;7.5;;;;;;;4.33;92.07813;924.5895;;;;
2020/01/28 06:36:07;;;;;;;51.2;37.4;;;;;;;4.41;91.43164;924.3722;;;;
2020/01/28 06:38:33;;;;;;;11.8;5.9;;;;;;;4.43;91.41309;924.4883;;;;
2020/01/28 06:40:58;;;;;;;57.2;32.8;;;;;;;4.47;90.54492;924.3469;;;;
2020/01/28 06:43:23;;;;;;;59;30.4;;;;;;;4.25;91.4873;924.3373;;;;
2020/01/28 06:45:48;;;;;;;35.6;18.4;;;;;;;4.28;91.56055;924.358;;;;
2020/01/28 06:48:13;;;;;;;46.2;26.5;;;;;;;4.25;91.34082;924.3925;;;;
2020/01/28 06:50:38;;;;;;;111.7;71.6;;;;;;;4.2;91.73438;924.3395;;;;
2020/01/28 06:53:03;;;;;;;16.2;8.3;;;;;;;4.09;92.57715;924.3943;;;;
2020/01/28 06:55:28;;;;;;;11.8;5.6;;;;;;;4.06;92.7959;924.3798;;;;
2020/01/28 06:57:53;;;;;;;10.7;4.7;;;;;;;4.1;92.91602;924.2858;;;;
2020/01/28 07:00:18;;;;;;;32.1;13.7;;;;;;;4.12;92.94434;924.2822;;;;
2020/01/28 07:02:44;;;;;;;648.1;276.9;;;;;;;4.15;92.80469;924.2596;;;;
2020/01/28 07:05:09;;;;;;;148.1;95.8;;;;;;;4.23;92.3623;924.2024;;;;
2020/01/28 07:07:34;;;;;;;74;54.3;;;;;;;4.29;91.98047;924.188;;;;
2020/01/28 07:09:59;;;;;;;33.7;20.8;;;;;;;4.38;91.2998;924.2637;;;;
2020/01/28 07:12:24;;;;;;;282.9;152.6;;;;;;;4.46;90.84473;924.2664;;;;
2020/01/28 07:14:50;;;;;;;78.9;48.3;;;;;;;4.53;90.7041;924.3332;;;;
2020/01/28 07:17:15;;;;;;;23.4;13.8;;;;;;;4.64;90.11914;924.2722;;;;
2020/01/28 07:19:40;;;;;;;16.1;7.7;;;;;;;4.63;89.42871;924.2264;;;;
2020/01/28 07:22:05;;;;;;;11.5;5.7;;;;;;;4.63;89.75488;924.1894;;;;
2020/01/28 07:24:30;;;;;;;11.8;6.2;;;;;;;4.73;89.3252;924.2509;;;;
2020/01/28 07:26:55;;;;;;;11.8;6.2;;;;;;;4.79;88.65137;924.1552;;;;
2020/01/28 07:29:20;;;;;;;11.2;5.1;;;;;;;4.78;88.92969;924.1638;;;;
2020/01/28 07:31:45;;;;;;;11.1;5.2;;;;;;;4.8;89.04785;924.1277;;;;
2020/01/28 07:34:11;;;;;;;13;7.1;;;;;;;4.87;88.97461;924.0717;;;;
2020/01/28 07:39:01;;;;;;;9.2;4.4;;;;;;;4.91;89.07031;924.2731;;;;
2020/01/28 07:41:26;;;;;;;6.8;3.8;;;;;;;5.02;88.41699;924.178;;;;
2020/01/28 07:43:51;;;;;;;8.5;5.2;;;;;;;5.16;87.98438;923.9911;;;;
2020/01/28 07:46:16;;;;;;;9.6;6.7;;;;;;;5.28;87.64746;924.0332;;;;
2020/01/28 07:48:41;;;;;;;7.1;4.7;;;;;;;5.47;86.72949;924.1884;;;;
2020/01/28 07:51:07;;;;;;;9.3;4;;;;;;;5.53;86.25488;924.1312;;;;
2020/01/28 07:53:32;;;;;;;7;3.6;;;;;;;5.61;85.85156;924.0679;;;;
2020/01/28 07:55:57;;;;;;;13.9;4;;;;;;;5.69;85.32813;924.1211;;;;
2020/01/28 07:58:23;;;;;;;7;3.6;;;;;;;5.71;85.15137;924.1316;;;;
2020/01/28 08:00:47;;;;;;;6.6;3.5;;;;;;;5.75;84.80859;924.1767;;;;
2020/01/28 08:03:13;;;;;;;8.9;3.8;;;;;;;5.8;84.55762;924.3262;;;;
2020/01/28 08:05:38;;;;;;;12.9;8;;;;;;;5.73;84.05957;924.3741;;;;
2020/01/28 08:08:03;;;;;;;13.3;9.2;;;;;;;;;;;;;
2020/01/28 08:10:29;;;;;;;11.9;8.2;;;;;;;;;;;;;
2020/01/28 08:12:54;;;;;;;11.1;6.9;;;;;;;;;;;;;
2020/01/28 08:15:19;;;;;;;13.8;7.8;;;;;;;;;;;;;
2020/01/28 08:17:44;;;;;;;15.7;8.7;;;;;;;;;;;;;
2020/01/28 08:20:13;;;;;;;15.6;9.8;;;;;;;;;;;;;
2020/01/28 08:22:34;;;;;;;12.7;7.6;;;;;;;;;;;;;
2020/01/28 08:25:08;;;;;;;15;7.5;;;;;;;;;;;;;
2020/01/28 08:27:32;;;;;;;15.1;8.7;;;;;;;;;;;;;
2020/01/28 08:29:52;;;;;;;17.4;8.1;;;;;;;;;;;;;
2020/01/28 08:37:05;;;;;;;14.7;7.9;;;;;;;;;;;;;
2020/01/28 08:39:30;;;;;;;13.8;10;;;;;;;;;;;;;
2020/01/28 08:41:55;;;;;;;13.8;10.4;;;;;;;;;;;;;
2020/01/28 08:44:20;;;;;;;12.6;7.9;;;;;;;;;;;;;
2020/01/28 08:46:46;;;;;;;11;7.2;;;;;;;;;;;;;
2020/01/28 08:49:11;;;;;;;13.9;8.7;;;;;;;;;;;;;
2020/01/28 08:51:36;;;;;;;6.9;4.3;;;;;;;;;;;;;
2020/01/28 08:54:01;;;;;;;15.5;8.9;;;;;;;;;;;;;
2020/01/28 08:56:26;;;;;;;19.9;9.9;;;;;;;;;;;;;
2020/01/28 08:58:51;;;;;;;12.4;6.3;;;;;;;;;;;;;
2020/01/28 09:01:17;;;;;;;11;6.2;;;;;;;;;;;;;
2020/01/28 09:03:42;;;;;;;9.9;6;;;;;;;;;;;;;
2020/01/28 09:06:07;;;;;;;11.3;5.4;;;;;;;;;;;;;
2020/01/28 09:08:32;;;;;;;10.4;5.6;;;;;;;;;;;;;
2020/01/28 09:10:57;;;;;;;7.9;4.7;;;;;;;;;;;;;
2020/01/28 09:13:22;;;;;;;8;4.3;;;;;;;;;;;;;
2020/01/28 09:15:47;;;;;;;7;3.7;;;;;;;;;;;;;
2020/01/28 09:18:13;;;;;;;6.5;3.5;;;;;;;;;;;;;
2020/01/28 09:20:39;;;;;;;9.6;4.5;;;;;;;;;;;;;
2020/01/28 09:23:03;;;;;;;12.9;6.9;;;;;;;;;;;;;
2020/01/28 09:25:28;;;;;;;9.7;4.8;;;;;;;;;;;;;
2020/01/28 09:27:54;;;;;;;8.8;4.7;;;;;;;;;;;;;
2020/01/28 09:32:45;;;;;;;10.8;4.9;;;;;;;;;;;;;
2020/01/28 09:35:13;;;;;;;11.7;4.5;;;;;;;;;;;;;
2020/01/28 09:37:34;;;;;;;8.3;4.3;;;;;;;;;;;;;
2020/01/28 09:39:59;;;;;;;8;4.6;;;;;;;;;;;;;
2020/01/28 09:42:25;;;;;;;9.9;5.4;;;;;;;;;;;;;
2020/01/28 09:44:50;;;;;;;6.8;4.4;;;;;;;;;;;;;
2020/01/28 09:47:15;;;;;;;10.7;4.6;;;;;;;;;;;;;
2020/01/28 09:49:40;;;;;;;5.9;3;;;;;;;;;;;;;
2020/01/28 09:52:05;;;;;;;6.9;4.1;;;;;;;;;;;;;
2020/01/28 09:55:56;;;;;;;7;3.2;;;;;;;;;;;;;
2020/01/28 09:58:21;;;;;;;9;4.2;;;;;;;;;;;;;
2020/01/28 10:00:46;;;;;;;8.1;4;;;;;;;;;;;;;
2020/01/28 10:03:11;;;;;;;9;4.8;;;;;;;;;;;;;
2020/01/28 10:05:36;;;;;;;8.9;5;;;;;;;;;;;;;
2020/01/28 10:08:01;;;;;;;7.9;5.1;;;;;;;;;;;;;
2020/01/28 10:10:26;;;;;;;7.3;4.9;;;;;;;;;;;;;
2020/01/28 10:12:51;;;;;;;8.1;5.4;;;;;;;;;;;;;
2020/01/28 10:15:17;;;;;;;10.2;6.1;;;;;;;;;;;;;
2020/01/28 10:17:42;;;;;;;7.5;4.3;;;;;;;;;;;;;
2020/01/28 10:20:07;;;;;;;10.1;5.8;;;;;;;;;;;;;
2020/01/28 10:22:32;;;;;;;11;5.8;;;;;;;;;;;;;
2020/01/28 10:24:57;;;;;;;10.4;4.6;;;;;;;;;;;;;
2020/01/28 10:27:22;;;;;;;11.2;5;;;;;;;;;;;;;
2020/01/28 10:29:47;;;;;;;8.9;4.8;;;;;;;;;;;;;
2020/01/28 10:32:12;;;;;;;5.8;3.5;;;;;;;;;;;;;
2020/01/28 10:34:37;;;;;;;6;3.3;;;;;;;;;;;;;
2020/01/28 10:37:02;;;;;;;4.9;2.5;;;;;;;;;;;;;
2020/01/28 10:39:27;;;;;;;8;3.7;;;;;;;;;;;;;
2020/01/28 10:41:52;;;;;;;6.7;3.5;;;;;;;;;;;;;
2020/01/28 10:44:18;;;;;;;7.4;3.7;;;;;;;;;;;;;
2020/01/28 10:46:43;;;;;;;6.9;3.6;;;;;;;;;;;;;
2020/01/28 10:49:08;;;;;;;5.7;3.5;;;;;;;;;;;;;
2020/01/28 10:51:33;;;;;;;5.8;3.1;;;;;;;;;;;;;
2020/01/28 10:53:58;;;;;;;5.6;3.1;;;;;;;;;;;;;
2020/01/28 10:56:23;;;;;;;5.6;3.6;;;;;;;;;;;;;
2020/01/28 10:58:48;;;;;;;9.6;5.2;;;;;;;;;;;;;
2020/01/28 11:01:13;;;;;;;8.3;6.2;;;;;;;;;;;;;
2020/01/28 11:03:39;;;;;;;8.2;4.9;;;;;;;;;;;;;
2020/01/28 11:06:04;;;;;;;6.3;3.7;;;;;;;;;;;;;
2020/01/28 11:08:29;;;;;;;4.4;3.1;;;;;;;;;;;;;
2020/01/28 11:10:54;;;;;;;10.5;4.4;;;;;;;;;;;;;
2020/01/28 11:13:19;;;;;;;6.3;3.7;;;;;;;;;;;;;
2020/01/28 11:15:45;;;;;;;8.2;1.7;;;;;;;;;;;;;
2020/01/28 11:18:10;;;;;;;3.4;1.1;;;;;;;;;;;;;
2020/01/28 11:20:35;;;;;;;1.3;0.6;;;;;;;;;;;;;
2020/01/28 11:23:00;;;;;;;3.7;2.5;;;;;;;;;;;;;
2020/01/28 11:25:25;;;;;;;3.1;2;;;;;;;;;;;;;
2020/01/28 11:27:51;;;;;;;3;1.8;;;;;;;;;;;;;
2020/01/28 11:30:16;;;;;;;1.2;1;;;;;;;;;;;;;
2020/01/28 11:32:41;;;;;;;3.9;2.6;;;;;;;;;;;;;
2020/01/28 11:35:06;;;;;;;2.3;1.6;;;;;;;;;;;;;
2020/01/28 11:37:31;;;;;;;3.4;2.4;;;;;;;;;;;;;
2020/01/28 11:39:56;;;;;;;4.1;3.3;;;;;;;;;;;;;
2020/01/28 11:42:21;;;;;;;1.4;1.2;;;;;;;;;;;;;
2020/01/28 11:44:46;;;;;;;1.3;0.8;;;;;;;;;;;;;
2020/01/28 11:47:11;;;;;;;5.5;3.7;;;;;;;;;;;;;
2020/01/28 11:49:37;;;;;;;5.5;3.5;;;;;;;;;;;;;
2020/01/28 11:52:02;;;;;;;3.2;1.8;;;;;;;;;;;;;
2020/01/28 11:54:27;;;;;;;3.8;2.5;;;;;;;;;;;;;
2020/01/28 11:56:52;;;;;;;2.9;1.4;;;;;;;;;;;;;
2020/01/28 11:59:17;;;;;;;1.3;1.1;;;;;;;;;;;;;
2020/01/28 12:01:42;;;;;;;4;2.4;;;;;;;;;;;;;
2020/01/28 12:04:07;;;;;;;1.6;1.2;;;;;;;;;;;;;
2020/01/28 12:06:33;;;;;;;0.7;0.6;;;;;;;;;;;;;
2020/01/28 12:08:58;;;;;;;1.7;1.2;;;;;;;;;;;;;
2020/01/28 12:11:23;;;;;;;1.3;0.7;;;;;;;;;;;;;
2020/01/28 12:13:48;;;;;;;1;0.9;;;;;;;;;;;;;
2020/01/28 12:16:13;;;;;;;1.1;0.7;;;;;;;;;;;;;
2020/01/28 12:18:38;;;;;;;1.3;0.7;;;;;;;;;;;;;
2020/01/28 12:21:03;;;;;;;1.8;1.1;;;;;;;;;;;;;
2020/01/28 12:23:28;;;;;;;2.7;1.4;;;;;;;;;;;;;
2020/01/28 12:25:53;;;;;;;0.5;0.3;;;;;;;;;;;;;
2020/01/28 12:28:19;;;;;;;1;0.5;;;;;;;;;;;;;
2020/01/28 12:30:49;;;;;;;1.2;0.8;;;;;;;;;;;;;
2020/01/28 12:35:47;;;;;;;1.1;0.7;;;;;;;;;;;;;
2020/01/28 12:40:41;;;;;;;1.9;0.5;;;;;;;;;;;;;
2020/01/28 12:42:51;;;;;;;0.8;0.8;;;;;;;;;;;;;
2020/01/28 12:45:15;;;;;;;1.4;1.1;;;;;;;;;;;;;
2020/01/28 12:47:40;;;;;;;2.3;0.9;;;;;;;;;;;;;
2020/01/28 12:50:05;;;;;;;1.1;1;;;;;;;;;;;;;
2020/01/28 12:52:30;;;;;;;1.8;1;;;;;;;;;;;;;
2020/01/28 12:54:55;;;;;;;1.5;0.8;;;;;;;;;;;;;
2020/01/28 12:57:20;;;;;;;0.7;0.4;;;;;;;;;;;;;
2020/01/28 12:59:45;;;;;;;1.8;1.2;;;;;;;;;;;;;
2020/01/28 13:02:11;;;;;;;1.4;1.1;;;;;;;;;;;;;
2020/01/28 13:04:36;;;;;;;1.4;0.7;;;;;;;;;;;;;
2020/01/28 13:07:01;;;;;;;2.3;1.2;;;;;;;;;;;;;
2020/01/28 13:09:26;;;;;;;2.6;1.4;;;;;;;;;;;;;
2020/01/28 13:11:51;;;;;;;2.2;1.5;;;;;;;;;;;;;
2020/01/28 13:14:16;;;;;;;1.8;1;;;;;;;;;;;;;
2020/01/28 13:16:41;;;;;;;1.3;0.8;;;;;;;;;;;;;
2020/01/28 13:19:06;;;;;;;1;0.7;;;;;;;;;;;;;
2020/01/28 13:21:32;;;;;;;0.9;0.7;;;;;;;;;;;;;
2020/01/28 13:23:57;;;;;;;2.5;1.1;;;;;;;;;;;;;
2020/01/28 13:26:22;;;;;;;1.5;1.3;;;;;;;;;;;;;
2020/01/28 13:28:47;;;;;;;2;1.1;;;;;;;;;;;;;
2020/01/28 13:31:12;;;;;;;1.2;0.8;;;;;;;;;;;;;
2020/01/28 13:33:37;;;;;;;1;0.6;;;;;;;;;;;;;
2020/01/28 13:36:02;;;;;;;1.3;0.6;;;;;;;;;;;;;
2020/01/28 13:38:27;;;;;;;2.3;1;;;;;;;;;;;;;
2020/01/28 13:40:53;;;;;;;2.3;1.4;;;;;;;;;;;;;
2020/01/28 13:43:18;;;;;;;2.3;1.1;;;;;;;;;;;;;
2020/01/28 13:45:43;;;;;;;1.7;1;;;;;;;;;;;;;
2020/01/28 13:48:09;;;;;;;1.5;0.8;;;;;;;;;;;;;
2020/01/28 13:50:34;;;;;;;1.1;0.7;;;;;;;;;;;;;
2020/01/28 13:52:59;;;;;;;1.3;0.7;;;;;;;;;;;;;
2020/01/28 13:55:24;;;;;;;0.9;0.6;;;;;;;;;;;;;
2020/01/28 13:57:49;;;;;;;1.9;0.9;;;;;;;;;;;;;
2020/01/28 14:00:14;;;;;;;1.2;0.8;;;;;;;;;;;;;
2020/01/28 14:02:39;;;;;;;1.2;0.8;;;;;;;;;;;;;
2020/01/28 14:05:05;;;;;;;2.9;1.4;;;;;;;;;;;;;
2020/01/28 14:07:30;;;;;;;1.9;1.2;;;;;;;;;;;;;
2020/01/28 14:09:55;;;;;;;1.7;1.1;;;;;;;;;;;;;
2020/01/28 14:13:51;;;;;;;1.9;0.9;;;;;;;5.86;58.96777;925.7122;;;;
2020/01/28 14:16:16;;;;;;;2.4;1.5;;;;;;;5.83;59.83203;925.6898;;;;
2020/01/28 14:18:41;;;;;;;2.1;0.9;;;;;;;5.76;60.11523;925.6014;;;;
2020/01/28 14:21:06;;;;;;;1.3;0.6;;;;;;;5.62;62.85059;925.7908;;;;
2020/01/28 14:23:31;;;;;;;0.7;0.4;;;;;;;5.47;63.71973;926.0932;;;;
2020/01/28 14:25:56;;;;;;;0.8;0.4;;;;;;;5.46;66.25684;926.2723;;;;
2020/01/28 14:28:21;;;;;;;1.4;0.7;;;;;;;5.36;65.7002;926.4163;;;;
2020/01/28 14:30:47;;;;;;;1.7;0.7;;;;;;;5.05;66.93848;926.5785;;;;
2020/01/28 14:33:12;;;;;;;1.5;0.7;;;;;;;4.89;69.63965;926.5963;;;;
2020/01/28 14:35:37;;;;;;;1.5;0.7;;;;;;;4.63;70.18066;926.4816;;;;
2020/01/28 14:38:02;;;;;;;1.1;0.8;;;;;;;4.44;71.46875;926.4916;;;;
2020/01/28 14:40:27;;;;;;;1.5;1.2;;;;;;;4.5;72.08691;926.5413;;;;
2020/01/28 14:42:52;;;;;;;1.3;0.9;;;;;;;4.38;72.25879;926.4322;;;;
2020/01/28 14:45:17;;;;;;;1.3;1;;;;;;;4.62;72.96289;926.4626;;;;
2020/01/28 14:47:42;;;;;;;2.5;1.3;;;;;;;4.54;72.2959;926.4456;;;;
2020/01/28 14:50:07;;;;;;;2.1;1.4;;;;;;;4.58;72.34668;926.3159;;;;
2020/01/28 14:52:38;;;;;;;2.5;1.6;;;;;;;4.47;72.9375;926.1893;;;;
2020/01/28 14:55:03;;;;;;;1.6;0.8;;;;;;;4.41;73.17578;926.2289;;;;
2020/01/28 14:57:38;;;;;;;2.2;1.1;;;;;;;4.5;72.42285;926.17;;;;
2020/01/28 15:00:03;;;;;;;1.7;1.3;;;;;;;4.46;71.92188;926.2356;;;;
2020/01/28 15:02:33;;;;;;;3.4;1.3;;;;;;;4.61;72.91602;926.1969;;;;
2020/01/28 15:05:05;;;;;;;1.5;1;;;;;;;4.81;70.88965;925.97;;;;
2020/01/28 15:09:44;;;;;;;2.9;1.8;;;;;;;4.97;69.17969;925.698;;;;
2020/01/28 15:12:26;;;;;;;2.7;1.7;;;;;;;5.07;72.71094;925.5871;;;;
2020/01/28 15:14:52;;;;;;;4.1;2.1;;;;;;;4.93;75.74219;925.8127;;;;
2020/01/28 15:17:17;;;;;;;1.7;1.2;;;;;;;4.87;76.80273;925.7308;;;;
2020/01/28 15:19:42;;;;;;;3;1.9;;;;;;;4.66;76.45996;925.6794;;;;
2020/01/28 15:22:23;;;;;;;2.8;2;;;;;;;4.41;74.73926;925.7316;;;;
2020/01/28 15:24:48;;;;;;;4.3;2.3;;;;;;;4.39;77.5498;925.7003;;;;
2020/01/28 15:27:13;;;;;;;2.6;1.6;;;;;;;4.45;73.95801;925.7075;;;;
2020/01/28 15:29:39;;;;;;;3.5;2.7;;;;;;;4.48;75.76367;926.0563;;;;
2020/01/28 15:32:14;;;;;;;3.9;2.6;;;;;;;4.58;76.32324;925.709;;;;
2020/01/28 15:34:40;;;;;;;2.7;1.4;;;;;;;4.4;75.1416;925.4846;;;;
2020/01/28 15:37:05;;;;;;;2.7;1.5;;;;;;;4.49;75.53027;925.7751;;;;
2020/01/28 15:39:30;;;;;;;4.1;1.5;;;;;;;4.55;74.59375;925.6937;;;;
2020/01/28 15:41:55;;;;;;;4.9;3;;;;;;;4.55;75.91309;925.7411;;;;
2020/01/28 15:44:20;;;;;;;6;3.5;;;;;;;4.54;76.10254;925.7039;;;;
2020/01/28 15:46:45;;;;;;;8;6.5;;;;;;;4.31;78.3457;926.1233;;;;
2020/01/28 15:49:10;;;;;;;3.1;2;;;;;;;4.26;79.18066;926.0162;;;;
2020/01/28 15:51:35;;;;;;;3.2;2;;;;;;;4.34;79.00293;926.0014;;;;
2020/01/28 15:54:01;;;;;;;2;1.5;;;;;;;4.36;75.66504;925.804;;;;
2020/01/28 15:56:26;;;;;;;3.5;2.1;;;;;;;4.31;77.34375;926.0428;;;;
2020/01/28 15:58:51;;;;;;;4.1;3;;;;;;;4.1;79.92676;926.1761;;;;
2020/01/28 16:01:32;;;;;;;3.7;2.5;;;;;;;4.01;80.66309;925.9756;;;;
2020/01/28 16:03:57;;;;;;;3.1;2;;;;;;;4.01;76.70508;926.0764;;;;
2020/01/28 16:06:22;;;;;;;3.4;2.1;;;;;;;3.91;70.3457;926.0078;;;;
2020/01/28 16:08:47;;;;;;;3.6;1.7;;;;;;;4.16;66.93262;926.0153;;;;
2020/01/28 16:11:12;;;;;;;4.5;2.3;;;;;;;4.19;66.60059;926.1458;;;;
2020/01/28 16:13:37;;;;;;;3.5;2;;;;;;;4.33;68.26563;926.147;;;;
2020/01/28 16:16:02;;;;;;;2.6;1.8;;;;;;;4.38;69.4668;926.1816;;;;
2020/01/28 16:18:28;;;;;;;9.9;6.5;;;;;;;4.49;66.29688;926.2975;;;;
2020/01/28 16:20:53;;;;;;;6.2;4.5;;;;;;;4.34;74.08496;926.3884;;;;
2020/01/28 16:23:18;;;;;;;14;11.8;;;;;;;4.3;72.87305;926.3602;;;;
2020/01/28 16:25:43;;;;;;;2.5;1.6;;;;;;;4.16;71.63672;926.2675;;;;
2020/01/28 16:28:08;;;;;;;3.5;2.4;;;;;;;4.26;72.55176;926.3219;;;;
2020/01/28 16:30:33;;;;;;;3.2;2.1;;;;;;;4.25;71.71777;926.2107;;;;
2020/01/28 16:32:58;;;;;;;29.1;21.6;;;;;;;4.21;75.09863;926.2346;;;;
2020/01/28 16:35:28;;;;;;;20.7;14.7;;;;;;;4.23;75.61914;926.2435;;;;
2020/01/28 16:37:53;;;;;;;6.5;4.4;;;;;;;4.08;76.27734;926.2986;;;;
2020/01/28 16:40:19;;;;;;;4.8;3.2;;;;;;;4;76.625;926.3019;;;;